Time;durP1;ratioP1;P1;durP2;ratioP2;P2;SDS_P1;SDS_P2;PMS_P1;PMS_P2;Temp;Humidity;BMP_temperature;BMP_pressure;BME280_temperature;BME280_humidity;BME280_pressure;Samples;Min_cycle;Max_cycle;Signal;HPM_P1;HPM_P2
2023/06/09 00:02:13;;;;;;;0.40;0.40;;;;;;;13.01;79.57;99241.94;5072899;28;20464;-79
2023/06/09 00:04:41;;;;;;;0.40;0.40;;;;;;;12.88;79.83;99231.47;5070566;28;20415;-79
2023/06/09 00:07:08;;;;;;;0.40;0.40;;;;;;;12.77;80.53;99230.53;5070827;28;20098;-78
2023/06/09 00:09:36;;;;;;;0.40;0.40;;;;;;;12.67;81.02;99235.84;5069494;28;20052;-78
2023/06/09 00:12:06;;;;;;;0.40;0.40;;;;;;;12.58;81.58;99237.34;5069520;28;20143;-80
2023/06/09 00:14:36;;;;;;;0.40;0.40;;;;;;;12.48;82.07;99232.63;5070855;28;20059;-78
2023/06/09 00:17:07;;;;;;;0.40;0.40;;;;;;;12.43;82.58;99234.44;5070689;28;20040;-80
2023/06/09 00:19:36;;;;;;;0.50;0.50;;;;;;;12.34;83.17;99229.47;5069580;28;20142;-79
2023/06/09 00:22:05;;;;;;;0.40;0.40;;;;;;;12.29;83.41;99228.59;5070831;28;20055;-78
2023/06/09 00:24:34;;;;;;;0.40;0.40;;;;;;;12.23;83.47;99227.69;5070790;28;20074;-79
2023/06/09 00:27:01;;;;;;;0.40;0.40;;;;;;;12.21;84.01;99229.03;5070661;28;20059;-78
2023/06/09 00:29:31;;;;;;;0.40;0.40;;;;;;;12.19;84.19;99223.03;5070651;28;20041;-79
2023/06/09 00:32:01;;;;;;;0.40;0.40;;;;;;;12.12;84.26;99221.31;5069873;28;20052;-79
2023/06/09 00:34:28;;;;;;;0.40;0.40;;;;;;;12.05;84.58;99209.88;5070182;28;20053;-78
2023/06/09 00:36:55;;;;;;;0.40;0.40;;;;;;;12.11;84.70;99216.97;5068904;28;20076;-78
2023/06/09 00:39:23;;;;;;;0.40;0.40;;;;;;;12.08;84.78;99217.47;5070498;28;20094;-78
2023/06/09 00:41:52;;;;;;;0.40;0.40;;;;;;;12.07;84.76;99215.81;5068857;28;20048;-78
2023/06/09 00:44:19;;;;;;;0.40;0.40;;;;;;;12.04;85.01;99219.03;5070487;28;20045;-79
2023/06/09 00:46:47;;;;;;;0.40;0.40;;;;;;;12.04;85.15;99210.91;5070322;28;20055;-79
2023/06/09 00:49:15;;;;;;;0.40;0.40;;;;;;;12.01;85.27;99216.03;5070420;28;20135;-79
2023/06/09 00:51:45;;;;;;;0.40;0.40;;;;;;;12.00;85.49;99217.91;5052348;28;20134;-79
2023/06/09 00:54:18;;;;;;;0.40;0.40;;;;;;;12.02;85.48;99221.16;5070500;28;20045;-78
2023/06/09 00:56:45;;;;;;;0.40;0.40;;;;;;;12.01;85.32;99216.84;5070554;28;20201;-79
2023/06/09 00:59:14;;;;;;;0.32;0.32;;;;;;;11.98;85.40;99211.94;5070650;28;20519;-79
2023/06/09 01:01:45;;;;;;;0.40;0.40;;;;;;;11.93;85.79;99215.38;5069155;28;20542;-80
2023/06/09 01:04:13;;;;;;;0.40;0.40;;;;;;;11.92;85.83;99207.50;5068293;28;20056;-79
2023/06/09 01:07:00;;;;;;;0.40;0.40;;;;;;;11.95;85.91;99206.19;5069831;28;20408;-79
2023/06/09 01:09:42;;;;;;;0.40;0.40;;;;;;;11.91;85.95;99203.16;5072516;28;20508;-79
2023/06/09 01:12:15;;;;;;;0.40;0.40;;;;;;;11.88;86.24;99212.59;5072878;28;20410;-78
2023/06/09 01:15:03;;;;;;;0.40;0.40;;;;;;;11.91;86.28;99211.28;5072198;28;20051;-79
2023/06/09 01:17:32;;;;;;;0.40;0.40;;;;;;;11.88;86.31;99201.78;5056434;28;20041;-79
2023/06/09 01:20:05;;;;;;;0.40;0.40;;;;;;;11.88;86.41;99218.00;5073269;28;20045;-78
2023/06/09 01:22:50;;;;;;;0.40;0.40;;;;;;;11.85;nan;99213.06;5055703;28;20058;-79
2023/06/09 01:25:39;;;;;;;0.40;0.40;;;;;;;11.91;86.21;99222.09;5072526;28;20499;-78
2023/06/09 01:28:11;;;;;;;0.40;0.40;;;;;;;11.85;86.36;99215.78;5072553;28;20049;-78
2023/06/09 01:30:41;;;;;;;;;;;;;;;11.83;86.35;99217.09;5073689;28;20063;-79
2023/06/09 01:33:11;;;;;;;0.50;0.50;;;;;;;11.77;86.62;99209.94;5072119;28;20021;-80
2023/06/09 01:35:39;;;;;;;0.40;0.40;;;;;;;11.85;86.36;99217.63;5071899;28;20136;-78
2023/06/09 01:38:07;;;;;;;0.40;0.40;;;;;;;11.86;86.47;99213.88;5073189;28;20114;-79
2023/06/09 01:40:35;;;;;;;0.40;0.40;;;;;;;11.82;86.43;99215.44;5072117;28;20040;-79
2023/06/09 01:43:13;;;;;;;0.40;0.40;;;;;;;11.82;86.67;99215.44;5072124;28;20045;-79
2023/06/09 01:45:41;;;;;;;0.40;0.40;;;;;;;11.87;86.62;99210.13;5071642;28;20056;-79
2023/06/09 01:48:31;;;;;;;0.40;0.40;;;;;;;11.93;86.64;99211.84;5073033;28;20823;-78
2023/06/09 01:51:12;;;;;;;0.40;0.40;;;;;;;11.92;86.21;99202.94;5057117;28;20155;-78
2023/06/09 01:53:44;;;;;;;0.40;0.40;;;;;;;11.92;86.08;99202.94;5071542;28;20045;-77
2023/06/09 01:56:21;;;;;;;0.40;0.40;;;;;;;11.96;86.02;99203.25;5071866;28;20045;-79
2023/06/09 01:58:53;;;;;;;0.50;0.50;;;;;;;11.98;85.85;99206.53;5088456;28;20052;-77
2023/06/09 02:01:22;;;;;;;0.40;0.40;;;;;;;11.97;85.96;99204.88;5039138;28;20048;-79
2023/06/09 02:03:52;;;;;;;0.40;0.40;;;;;;;12.02;85.97;99202.22;5055332;28;20059;-80
2023/06/09 02:06:20;;;;;;;0.40;0.40;;;;;;;12.00;85.87;99198.97;5051924;28;20053;-80
2023/06/09 02:09:01;;;;;;;0.40;0.40;;;;;;;12.04;85.52;99196.59;5049320;28;20140;-79
2023/06/09 02:11:29;;;;;;;0.40;0.40;;;;;;;12.08;85.46;99195.03;5068040;28;20507;-79
2023/06/09 02:13:56;;;;;;;0.40;0.40;;;;;;;12.08;85.46;99198.53;5051192;28;20049;-78
2023/06/09 02:16:25;;;;;;;0.40;0.40;;;;;;;12.09;85.20;99193.94;5068172;28;20059;-78
2023/06/09 02:18:53;;;;;;;0.40;0.40;;;;;;;12.20;85.11;99192.19;5052271;28;20160;-78
2023/06/09 02:21:20;;;;;;;0.40;0.40;;;;;;;12.28;84.76;99197.16;5050331;28;20155;-78
2023/06/09 02:23:51;;;;;;;0.40;0.40;;;;;;;12.31;84.57;99189.38;5051936;28;20049;-79
2023/06/09 02:26:18;;;;;;;0.40;0.40;;;;;;;12.36;84.20;99194.03;5052299;28;20077;-79
2023/06/09 02:28:47;;;;;;;0.40;0.40;;;;;;;12.40;84.14;99197.88;5051955;28;20455;-79
2023/06/09 02:31:14;;;;;;;0.40;0.40;;;;;;;12.41;84.03;99198.72;5051929;28;20418;-79
2023/06/09 02:33:41;;;;;;;0.40;0.40;;;;;;;12.47;83.64;99203.91;5050399;28;20415;-78
2023/06/09 02:36:12;;;;;;;0.40;0.40;;;;;;;12.49;83.48;99201.78;5061213;28;20453;-80
2023/06/09 02:38:42;;;;;;;0.40;0.40;;;;;;;12.53;83.53;99194.81;5070483;28;20041;-79
2023/06/09 02:41:09;;;;;;;0.40;0.40;;;;;;;12.60;83.16;99205.41;5070344;28;20128;-79
2023/06/09 02:43:37;;;;;;;0.40;0.40;;;;;;;12.66;82.80;99195.47;5087347;28;20098;-78
2023/06/09 02:46:04;;;;;;;0.40;0.40;;;;;;;12.74;82.29;99198.56;5071741;28;20072;-80
2023/06/09 02:48:31;;;;;;;0.40;0.40;;;;;;;12.80;82.12;99197.53;5070630;28;20427;-79
2023/06/09 02:51:01;;;;;;;0.40;0.40;;;;;;;12.89;81.40;99202.50;5071619;28;20415;-80
2023/06/09 02:53:32;;;;;;;0.40;0.40;;;;;;;12.94;81.13;99197.16;5070241;28;20053;-78
2023/06/09 02:56:01;;;;;;;0.40;0.40;;;;;;;12.97;80.90;99202.84;5054103;28;20053;-79
2023/06/09 02:58:34;;;;;;;0.40;0.40;;;;;;;13.04;80.45;99196.41;5070538;28;20048;-80
2023/06/09 03:01:02;;;;;;;0.40;0.40;;;;;;;13.09;80.12;99200.00;5069996;28;20052;-79
2023/06/09 03:03:30;;;;;;;0.40;0.40;;;;;;;13.18;80.03;99201.16;5071697;28;20055;-79
2023/06/09 03:05:58;;;;;;;0.40;0.40;;;;;;;13.28;79.66;99202.38;5053129;28;20086;-79
2023/06/09 03:08:27;;;;;;;0.40;0.40;;;;;;;13.31;79.64;99199.94;5070484;28;20050;-78
2023/06/09 03:10:57;;;;;;;0.40;0.40;;;;;;;13.22;79.85;99196.06;5069881;28;20055;-79
2023/06/09 03:13:24;;;;;;;0.32;0.32;;;;;;;13.12;80.04;99179.72;5069716;28;20074;-79
2023/06/09 03:15:53;;;;;;;0.40;0.40;;;;;;;13.19;80.28;99189.25;5070224;28;20062;-79
2023/06/09 03:18:22;;;;;;;0.40;0.40;;;;;;;13.28;80.10;99203.19;5053562;28;20499;-78
2023/06/09 03:20:55;;;;;;;0.40;0.40;;;;;;;13.34;79.98;99202.16;5069834;28;20057;-79
2023/06/09 03:23:25;;;;;;;0.40;0.40;;;;;;;13.39;79.69;99183.25;5035507;28;20052;-78
2023/06/09 03:25:53;;;;;;;0.40;0.40;;;;;;;13.54;79.09;99195.25;5070074;28;20045;-79
2023/06/09 03:28:26;;;;;;;0.40;0.40;;;;;;;13.57;78.81;99189.31;5088049;28;20107;-79
2023/06/09 03:30:56;;;;;;;0.40;0.40;;;;;;;13.52;78.80;99195.53;5069176;28;20059;-80
2023/06/09 03:33:25;;;;;;;0.40;0.40;;;;;;;13.55;78.92;99202.34;5052923;28;20049;-80
2023/06/09 03:35:57;;;;;;;0.40;0.40;;;;;;;13.68;78.66;99195.66;5086240;28;20050;-80
2023/06/09 03:38:27;;;;;;;0.40;0.40;;;;;;;13.78;78.13;99203.88;5069394;28;20143;-79
2023/06/09 03:40:54;;;;;;;0.40;0.40;;;;;;;13.90;78.04;99201.78;5070555;28;20506;-78
2023/06/09 03:43:21;;;;;;;0.30;0.30;;;;;;;13.99;77.50;99207.53;5069000;28;20083;-79
2023/06/09 03:45:49;;;;;;;0.50;0.50;;;;;;;14.15;77.39;99211.13;5052417;28;20049;-79
2023/06/09 03:48:17;;;;;;;0.40;0.40;;;;;;;14.20;76.70;99211.97;5052924;28;20056;-79
2023/06/09 03:50:45;;;;;;;0.40;0.40;;;;;;;14.25;76.80;99206.56;5069320;28;20615;-79
2023/06/09 03:53:13;;;;;;;0.40;0.40;;;;;;;14.26;76.58;99189.22;5052276;28;20418;-77
2023/06/09 03:55:40;;;;;;;0.40;0.40;;;;;;;14.35;76.15;99202.28;5068907;28;20044;-77
2023/06/09 03:58:12;;;;;;;0.45;0.45;;;;;;;14.47;76.04;99202.88;5069609;28;20048;-79
2023/06/09 04:00:42;;;;;;;0.40;0.40;;;;;;;14.62;75.64;99216.56;5069037;28;20299;-79
2023/06/09 04:03:10;;;;;;;0.40;0.40;;;;;;;14.72;75.44;99216.59;5069351;28;20055;-79
2023/06/09 04:05:37;;;;;;;0.40;0.40;;;;;;;14.90;74.89;99214.47;5070459;28;20045;-79
2023/06/09 04:08:04;;;;;;;0.40;0.40;;;;;;;14.98;74.09;99218.56;5048736;28;20091;-79
2023/06/09 04:10:35;;;;;;;0.40;0.40;;;;;;;14.98;73.95;99219.38;5061544;28;20503;-79
2023/06/09 04:13:26;;;;;;;0.40;0.40;;;;;;;15.03;73.69;99224.81;5039751;28;20064;-78
2023/06/09 04:15:54;;;;;;;0.40;0.40;;;;;;;15.11;73.57;99221.56;5060890;28;20048;-79
2023/06/09 04:18:21;;;;;;;0.40;0.40;;;;;;;15.17;73.33;99231.38;5058017;28;20055;-78
2023/06/09 04:20:48;;;;;;;0.40;0.40;;;;;;;15.31;73.39;99222.69;5070520;28;20487;-77
2023/06/09 04:23:16;;;;;;;0.40;0.40;;;;;;;15.49;72.80;99211.28;5067666;28;20114;-79
2023/06/09 04:25:45;;;;;;;0.40;0.40;;;;;;;15.63;72.12;99224.38;5068786;28;20155;-82
2023/06/09 04:28:21;;;;;;;0.40;0.40;;;;;;;15.78;71.85;99229.81;5064265;28;20084;-81
2023/06/09 04:30:53;;;;;;;0.38;0.38;;;;;;;15.91;70.97;99228.44;5053884;28;20079;-79
2023/06/09 04:33:24;;;;;;;0.40;0.40;;;;;;;15.90;70.88;99227.66;5046766;28;20528;-80
2023/06/09 04:35:54;;;;;;;0.40;0.40;;;;;;;15.95;70.54;99222.19;5075890;28;20059;-79
2023/06/09 04:38:27;;;;;;;0.40;0.40;;;;;;;15.98;70.52;99218.09;5047571;28;20052;-78
2023/06/09 04:40:57;;;;;;;0.30;0.30;;;;;;;16.15;70.16;99223.22;5060582;28;20045;-80
2023/06/09 04:43:36;;;;;;;0.40;0.40;;;;;;;16.28;69.30;99203.59;5071377;28;20056;-80
2023/06/09 04:46:07;;;;;;;0.40;0.40;;;;;;;16.44;68.81;99210.63;5085687;28;20056;-80
2023/06/09 04:48:37;;;;;;;0.30;0.30;;;;;;;16.60;68.33;99210.56;5070346;28;20072;-80
2023/06/09 04:51:07;;;;;;;0.40;0.40;;;;;;;16.80;67.70;99212.41;5066425;28;20494;-79
2023/06/09 04:53:42;;;;;;;0.40;0.40;;;;;;;17.01;66.94;99213.91;5067978;28;20196;-78
2023/06/09 04:56:13;;;;;;;0.40;0.40;;;;;;;17.18;66.25;99219.00;5016768;28;20050;-79
2023/06/09 04:58:40;;;;;;;0.40;0.40;;;;;;;17.26;65.62;99220.31;5047220;28;20432;-79
2023/06/09 05:01:08;;;;;;;0.40;0.40;;;;;;;17.28;64.76;99216.19;5076810;28;20570;-80
2023/06/09 05:03:36;;;;;;;0.40;0.40;;;;;;;17.42;64.94;99221.84;5068025;28;20048;-79
2023/06/09 05:06:04;;;;;;;0.30;0.30;;;;;;;17.53;64.36;99217.13;5069579;28;20054;-78
2023/06/09 05:08:32;;;;;;;0.36;0.36;;;;;;;17.59;63.86;99223.34;4700965;28;10000589;-78
2023/06/09 05:11:01;;;;;;;0.40;0.40;;;;;;;17.59;63.31;99198.78;5067913;28;20561;-79
2023/06/09 05:13:28;;;;;;;0.30;0.30;;;;;;;17.63;63.18;99200.66;5067767;28;20076;-78
2023/06/09 05:15:57;;;;;;;0.40;0.40;;;;;;;17.74;62.23;99215.03;5055257;28;20521;-78
2023/06/09 05:18:26;;;;;;;0.30;0.30;;;;;;;17.69;61.96;99207.69;5071493;28;20528;-78
2023/06/09 05:20:55;;;;;;;0.30;0.30;;;;;;;17.75;62.20;99201.09;5071413;28;20044;-79
2023/06/09 05:23:22;;;;;;;0.40;0.40;;;;;;;17.94;62.15;99201.22;5071940;28;20048;-80
2023/06/09 05:25:51;;;;;;;0.40;0.40;;;;;;;18.09;61.57;99210.38;5070837;28;20102;-80
2023/06/09 05:28:24;;;;;;;0.40;0.40;;;;;;;18.21;60.78;99210.78;5073040;28;20110;-81
2023/06/09 05:30:51;;;;;;;0.40;0.40;;;;;;;18.30;60.33;99211.75;5072776;28;20049;-79
2023/06/09 05:33:20;;;;;;;0.40;0.40;;;;;;;18.45;60.13;99205.31;5070888;28;20067;-79
2023/06/09 05:35:47;;;;;;;0.40;0.40;;;;;;;18.49;58.98;99209.09;5072135;28;20056;-79
2023/06/09 05:38:16;;;;;;;0.30;0.30;;;;;;;18.61;58.08;99216.88;5071568;28;20497;-78
2023/06/09 05:40:43;;;;;;;0.40;0.40;;;;;;;18.63;57.49;99212.75;5056659;28;20399;-79
2023/06/09 05:43:10;;;;;;;0.35;0.35;;;;;;;18.60;57.28;99213.31;5052390;28;20114;-78
2023/06/09 05:45:37;;;;;;;0.30;0.30;;;;;;;18.79;56.88;99209.84;5052460;28;20045;-79
2023/06/09 05:48:05;;;;;;;0.30;0.30;;;;;;;18.96;55.04;99206.59;5050893;28;20569;-79
2023/06/09 05:50:32;;;;;;;0.40;0.40;;;;;;;19.09;53.17;99213.25;5068037;28;20053;-80
2023/06/09 05:52:59;;;;;;;0.40;0.40;;;;;;;19.25;51.80;99210.00;5052297;28;20136;-78
2023/06/09 05:55:31;;;;;;;0.30;0.30;;;;;;;19.44;50.92;99212.72;5052370;28;20045;-78
2023/06/09 05:58:00;;;;;;;0.30;0.30;;;;;;;19.50;49.65;99208.00;5056400;28;20048;-80
2023/06/09 06:00:29;;;;;;;0.32;0.32;;;;;;;19.53;49.58;99207.38;5072856;28;20051;-78
2023/06/09 06:03:03;;;;;;;0.30;0.30;;;;;;;19.56;49.28;99205.97;5072174;28;20107;-79
2023/06/09 06:05:49;;;;;;;0.30;0.30;;;;;;;19.72;49.13;99207.38;5072224;28;20411;-79
2023/06/09 06:08:36;;;;;;;0.30;0.30;;;;;;;19.80;49.11;99201.22;5070755;28;20110;-81
2023/06/09 06:11:07;;;;;;;0.30;0.30;;;;;;;19.84;46.23;99204.16;5060165;28;20110;-79
2023/06/09 06:13:34;;;;;;;0.30;0.30;;;;;;;19.82;45.89;99198.16;5059353;28;20513;-77
2023/06/09 06:18:54;;;;;;;0.30;0.30;;;;;;;20.00;44.63;99194.53;5071575;28;20044;-80
2023/06/09 06:21:21;;;;;;;0.30;0.30;;;;;;;20.03;44.65;99202.16;5072076;28;20068;-80
2023/06/09 06:26:35;;;;;;;0.30;0.30;;;;;;;20.27;43.76;99199.25;5053631;28;20095;-80
2023/06/09 06:31:48;;;;;;;0.30;0.30;;;;;;;20.71;43.50;99197.84;5062015;28;20044;-78
2023/06/09 06:34:18;;;;;;;0.22;0.22;;;;;;;20.79;42.26;99196.31;5052706;28;20064;-80
2023/06/09 06:36:45;;;;;;;0.30;0.30;;;;;;;20.75;41.39;99198.03;5071688;28;20051;-78
2023/06/09 06:39:15;;;;;;;0.30;0.30;;;;;;;20.72;40.93;99204.94;5074965;28;20044;-80
2023/06/09 06:41:42;;;;;;;0.30;0.30;;;;;;;20.72;40.08;99199.47;5058917;28;20056;-79
2023/06/09 06:44:09;;;;;;;0.30;0.30;;;;;;;20.74;40.15;99197.22;5051296;28;20048;-78
2023/06/09 06:46:38;;;;;;;0.30;0.30;;;;;;;20.68;40.28;99181.97;5060657;28;20076;-79
2023/06/09 06:49:10;;;;;;;0.30;0.30;;;;;;;20.88;40.11;99188.97;5053764;28;20053;-80
2023/06/09 06:51:38;;;;;;;0.30;0.30;;;;;;;21.03;39.72;99187.00;5077825;28;20418;-80
2023/06/09 06:54:05;;;;;;;0.30;0.30;;;;;;;21.16;39.31;99199.88;5070221;28;20534;-80
2023/06/09 06:56:51;;;;;;;0.30;0.30;;;;;;;21.07;38.81;99188.81;5067938;28;20131;-79
2023/06/09 06:59:21;;;;;;;0.30;0.30;;;;;;;21.10;38.63;99177.22;5082800;28;20048;-79
2023/06/09 07:01:49;;;;;;;0.30;0.30;;;;;;;21.12;37.93;99183.22;5083739;28;20055;-80
2023/06/09 07:04:16;;;;;;;0.30;0.30;;;;;;;21.18;37.34;99187.44;5072207;28;20533;-80
2023/06/09 07:06:43;;;;;;;0.30;0.30;;;;;;;21.28;36.99;99197.38;5069019;28;20509;-80
2023/06/09 07:09:11;;;;;;;0.30;0.30;;;;;;;21.37;36.80;99197.44;5064366;28;20463;-79
2023/06/09 07:11:44;;;;;;;0.30;0.30;;;;;;;21.29;36.70;99189.94;5062811;28;20048;-81
2023/06/09 07:14:11;;;;;;;0.30;0.30;;;;;;;21.31;36.21;99206.94;5067292;28;20056;-78
2023/06/09 07:16:41;;;;;;;0.30;0.30;;;;;;;21.25;36.22;99186.22;5065706;28;20116;-79
2023/06/09 07:19:09;;;;;;;0.30;0.30;;;;;;;21.43;35.55;99190.75;5070622;28;20275;-79
2023/06/09 07:21:55;;;;;;;0.30;0.30;;;;;;;21.42;35.11;99189.94;5073243;28;20056;-80
2023/06/09 07:24:23;;;;;;;0.30;0.30;;;;;;;21.48;33.23;99187.06;5069100;28;20048;-81
2023/06/09 07:26:50;;;;;;;0.30;0.30;;;;;;;21.52;31.86;99188.88;5062642;28;20056;-78
2023/06/09 07:29:18;;;;;;;0.30;0.30;;;;;;;21.49;31.78;99183.19;5066425;28;20143;-79
2023/06/09 07:31:45;;;;;;;0.30;0.30;;;;;;;21.62;30.19;99185.88;5069724;28;20510;-80
2023/06/09 07:34:15;;;;;;;0.30;0.30;;;;;;;21.55;29.57;99193.75;5068532;28;20059;-78
2023/06/09 07:36:42;;;;;;;0.30;0.30;;;;;;;21.62;30.03;99182.31;5057641;28;20048;-80
2023/06/09 07:39:17;;;;;;;0.30;0.30;;;;;;;21.73;30.20;99189.19;5066256;28;20079;-79
2023/06/09 07:41:44;;;;;;;0.30;0.30;;;;;;;21.88;30.17;99187.97;5069318;28;20048;-79
2023/06/09 07:44:11;;;;;;;0.30;0.30;;;;;;;22.04;30.04;99183.69;5070487;28;20052;-79
2023/06/09 07:46:39;;;;;;;0.30;0.30;;;;;;;22.06;29.51;99178.69;5069074;28;20045;-80
2023/06/09 07:49:13;;;;;;;0.30;0.30;;;;;;;22.14;29.59;99192.78;5070628;28;20151;-81
2023/06/09 07:51:42;;;;;;;0.40;0.40;;;;;;;22.28;29.52;99183.34;5067269;28;20051;-79
2023/06/09 07:54:09;;;;;;;0.30;0.30;;;;;;;22.25;29.42;99183.16;5063111;28;20044;-79
2023/06/09 07:56:40;;;;;;;0.30;0.30;;;;;;;22.40;29.06;99196.47;5056886;28;20052;-81
2023/06/09 07:59:10;;;;;;;0.40;0.40;;;;;;;22.44;28.90;99183.72;5054069;28;20052;-80
2023/06/09 08:01:38;;;;;;;0.40;0.40;;;;;;;22.57;28.58;99179.22;5067297;28;20519;-80
2023/06/09 08:04:34;;;;;;;0.40;0.40;;;;;;;22.85;29.17;99196.25;5072870;28;20049;-79
2023/06/09 08:07:02;;;;;;;0.40;0.40;;;;;;;22.83;28.91;99192.22;5070766;28;20546;-78
2023/06/09 08:09:29;;;;;;;0.40;0.40;;;;;;;22.85;29.22;99190.75;5052985;28;20451;-80
2023/06/09 08:11:56;;;;;;;0.40;0.40;;;;;;;23.03;28.28;99197.13;5048681;28;20060;-80
2023/06/09 08:14:26;;;;;;;0.40;0.40;;;;;;;23.21;27.75;99197.94;5057130;28;20045;-80
2023/06/09 08:16:53;;;;;;;0.40;0.40;;;;;;;23.43;27.06;99188.69;5052587;28;20052;-79
2023/06/09 08:19:22;;;;;;;0.40;0.40;;;;;;;23.48;26.60;99190.47;5056736;28;20451;-79
2023/06/09 08:21:49;;;;;;;0.40;0.40;;;;;;;23.57;26.61;99199.53;5051753;28;20412;-80
2023/06/09 08:24:36;;;;;;;0.40;0.40;;;;;;;23.56;26.49;99193.22;5054029;28;20075;-80
2023/06/09 08:27:07;;;;;;;0.40;0.40;;;;;;;23.58;26.18;99173.63;5045832;28;20056;-80
2023/06/09 08:29:58;;;;;;;0.40;0.40;;;;;;;23.54;25.62;99178.94;5052746;28;20068;-81
2023/06/09 08:32:30;;;;;;;0.40;0.40;;;;;;;23.86;26.06;99193.34;5067977;28;20049;-81
2023/06/09 08:35:06;;;;;;;0.40;0.40;;;;;;;23.83;25.68;99184.94;5074078;28;20163;-81
2023/06/09 08:37:35;;;;;;;0.40;0.40;;;;;;;24.10;25.80;99184.50;5073905;28;20530;-81
2023/06/09 08:40:07;;;;;;;0.40;0.40;;;;;;;24.30;25.31;99176.66;5091869;28;20048;-80
2023/06/09 08:42:37;;;;;;;0.40;0.40;;;;;;;24.60;25.24;99178.31;5077546;28;20080;-81
2023/06/09 08:45:05;;;;;;;0.40;0.40;;;;;;;25.00;25.22;99185.34;5078270;28;20464;-80
2023/06/09 08:47:36;;;;;;;0.40;0.40;;;;;;;24.97;24.75;99178.56;5078053;28;20051;-80
2023/06/09 08:50:04;;;;;;;0.40;0.40;;;;;;;24.83;24.33;99194.56;5074682;28;20557;-81
2023/06/09 08:52:32;;;;;;;0.40;0.40;;;;;;;24.66;25.17;99184.44;5072445;28;20056;-80
2023/06/09 08:54:59;;;;;;;0.40;0.40;;;;;;;24.76;24.52;99184.03;5073364;28;20102;-80
2023/06/09 08:57:30;;;;;;;0.40;0.40;;;;;;;24.91;24.63;99176.31;5073514;28;20175;-80
2023/06/09 08:59:57;;;;;;;0.40;0.40;;;;;;;24.87;24.41;99167.91;5055554;28;20102;-81
2023/06/09 09:02:25;;;;;;;0.45;0.45;;;;;;;25.12;24.25;99170.78;5073168;28;20095;-81
2023/06/09 09:04:52;;;;;;;0.50;0.50;;;;;;;25.45;24.30;99168.94;5071598;28;20056;-80
2023/06/09 09:07:20;;;;;;;0.40;0.40;;;;;;;25.91;23.78;99171.72;5072775;28;20044;-81
2023/06/09 09:09:47;;;;;;;0.50;0.50;;;;;;;26.15;22.78;99171.75;5072699;28;20076;-80
2023/06/09 09:12:14;;;;;;;0.40;0.40;;;;;;;26.42;22.58;99185.25;5071688;28;20044;-80
2023/06/09 09:14:45;;;;;;;0.50;0.50;;;;;;;26.78;22.79;99185.25;5072742;28;20053;-80
2023/06/09 09:17:14;;;;;;;0.40;0.40;;;;;;;26.51;22.56;99183.16;5073078;28;20566;-81
2023/06/09 09:20:01;;;;;;;0.50;0.50;;;;;;;26.76;22.23;99179.28;5072726;28;20045;-81
2023/06/09 09:22:29;;;;;;;0.40;0.40;;;;;;;27.19;22.25;99177.81;5072788;28;20062;-81
2023/06/09 09:25:48;;;;;;;0.50;0.50;;;;;;;27.93;22.40;99179.44;5072951;28;20112;-81
2023/06/09 09:28:16;;;;;;;0.50;0.50;;;;;;;28.93;21.47;99185.47;5055201;28;20044;-81
2023/06/09 09:30:51;;;;;;;0.40;0.40;;;;;;;29.15;20.72;99180.41;5072224;28;20056;-81
2023/06/09 09:33:20;;;;;;;0.40;0.40;;;;;;;29.04;20.22;99182.91;5072515;28;20048;-82
2023/06/09 09:35:57;;;;;;;0.20;0.20;;;;;;;27.90;20.90;99175.41;5072190;28;20075;-81
2023/06/09 09:38:27;;;;;;;0.43;0.43;;;;;;;27.34;21.82;99175.44;5071197;28;20102;-81
2023/06/09 09:40:56;;;;;;;0.50;0.50;;;;;;;28.07;21.41;99175.06;5072447;28;20048;-81
2023/06/09 09:43:28;;;;;;;0.47;0.47;;;;;;;28.45;21.15;99173.66;5072554;28;20064;-80
2023/06/09 09:48:49;;;;;;;0.40;0.40;;;;;;;29.07;20.27;99164.78;5067486;28;20049;-82
2023/06/09 09:51:20;;;;;;;0.40;0.40;;;;;;;29.13;19.73;99175.22;5076727;28;20540;-81
2023/06/09 09:53:49;;;;;;;0.50;0.50;;;;;;;28.70;19.92;99162.34;5073836;28;20041;-79
2023/06/09 09:56:22;;;;;;;0.50;0.50;;;;;;;28.83;19.95;99158.25;5071832;28;20147;-80
2023/06/09 09:58:53;;;;;;;0.30;0.30;;;;;;;28.74;20.09;99158.47;5072282;28;20503;-81
2023/06/09 10:01:39;;;;;;;0.52;0.52;;;;;;;28.81;19.89;99148.69;5071012;28;20521;-81
2023/06/09 10:04:07;;;;;;;0.22;0.22;;;;;;;28.96;20.00;99153.38;5071923;28;20074;-80
2023/06/09 10:06:37;;;;;;;0.40;0.40;;;;;;;28.85;19.95;99146.78;5072058;28;20048;-79
2023/06/09 10:09:08;;;;;;;0.40;0.40;;;;;;;29.90;19.15;99142.13;5071257;28;20060;-81
2023/06/09 10:11:40;;;;;;;0.50;0.50;;;;;;;30.05;19.04;99149.56;5072040;28;20048;-80
2023/06/09 10:14:07;;;;;;;0.50;0.50;;;;;;;29.77;19.06;99136.75;5072254;28;20052;-80
2023/06/09 10:16:35;;;;;;;0.50;0.50;;;;;;;30.04;18.89;99142.41;5072055;28;20049;-81
2023/06/09 10:19:02;;;;;;;0.50;0.50;;;;;;;30.02;18.83;99136.41;5069872;28;20078;-80
2023/06/09 10:21:31;;;;;;;0.47;0.47;;;;;;;30.56;18.51;99138.09;5070189;28;20419;-80
2023/06/09 10:23:58;;;;;;;0.30;0.30;;;;;;;28.70;20.18;99143.69;5054126;28;20087;-80
2023/06/09 10:26:26;;;;;;;0.50;0.50;;;;;;;29.33;19.88;99128.78;5071793;28;20048;-81
2023/06/09 10:31:58;;;;;;;0.50;0.50;;;;;;;31.92;17.35;99122.97;5062317;28;20052;-79
2023/06/09 10:34:26;;;;;;;0.40;0.40;;;;;;;31.79;17.54;99115.31;5062658;28;20102;-80
2023/06/09 10:39:54;;;;;;;0.20;0.20;;;;;;;30.47;18.85;99109.69;5071400;28;20049;-80
2023/06/09 10:42:52;;;;;;;0.50;0.50;;;;;;;30.02;19.41;99112.16;5066951;28;20050;-80
2023/06/09 10:45:20;;;;;;;0.50;0.50;;;;;;;30.47;19.44;99108.91;5051061;28;20052;-80
2023/06/09 10:48:05;;;;;;;0.50;0.50;;;;;;;31.05;18.54;99103.75;5056068;28;20045;-82
2023/06/09 10:50:41;;;;;;;0.50;0.50;;;;;;;31.70;18.13;99096.91;5065050;28;20057;-81
2023/06/09 10:53:17;;;;;;;0.50;0.50;;;;;;;32.38;17.46;99100.22;5065955;28;20064;-80
2023/06/09 10:55:45;;;;;;;0.50;0.50;;;;;;;32.28;17.58;99097.38;5067587;28;20049;-79
2023/06/09 10:58:44;;;;;;;0.50;0.50;;;;;;;31.35;18.60;99082.53;5067799;28;20131;-81
2023/06/09 11:01:11;;;;;;;0.50;0.50;;;;;;;31.27;18.32;99092.81;5009824;28;20552;-81
2023/06/09 11:03:39;;;;;;;0.50;0.50;;;;;;;31.36;18.47;99101.69;4678642;28;10000234;-81
2023/06/09 11:06:06;;;;;;;0.20;0.20;;;;;;;29.51;19.31;99078.28;5042264;28;20053;-81
2023/06/09 11:09:08;;;;;;;0.20;0.20;;;;;;;27.83;21.44;99080.97;5022679;28;20168;-79
2023/06/09 11:11:52;;;;;;;0.10;0.10;;;;;;;27.00;22.05;99077.91;5023182;28;20056;-79
2023/06/09 11:14:57;;;;;;;0.60;0.60;;;;;;;27.44;21.54;99084.28;5007758;28;20061;-80
2023/06/09 11:17:36;;;;;;;0.20;0.20;;;;;;;26.58;22.32;99056.13;5022964;28;20292;-79
2023/06/09 11:20:08;;;;;;;0.20;0.20;;;;;;;26.01;22.61;99082.00;5018542;28;20119;-80
2023/06/09 11:22:44;;;;;;;0.20;0.20;;;;;;;25.56;23.26;99077.31;4993973;28;20563;-80
2023/06/09 11:25:15;;;;;;;0.60;0.60;;;;;;;27.56;21.50;99072.34;5001617;28;20146;-80
2023/06/09 11:27:48;;;;;;;0.60;0.60;;;;;;;30.21;19.62;99049.25;5001371;28;20046;-79
2023/06/09 11:30:20;;;;;;;0.50;0.50;;;;;;;31.32;18.26;99059.03;4987655;28;20408;-80
2023/06/09 11:32:56;;;;;;;0.50;0.50;;;;;;;30.16;19.14;99044.81;4989424;28;20060;-80
2023/06/09 11:35:29;;;;;;;0.50;0.50;;;;;;;30.20;18.81;99059.56;4974707;28;20061;-80
2023/06/09 11:38:05;;;;;;;0.50;0.50;;;;;;;31.21;17.55;99050.56;5065620;28;20048;-79
2023/06/09 11:40:43;;;;;;;0.50;0.50;;;;;;;32.63;17.90;99035.38;5057307;28;20080;-80
2023/06/09 11:43:11;;;;;;;0.50;0.50;;;;;;;33.94;16.45;99035.25;5059474;28;20519;-81
2023/06/09 11:45:38;;;;;;;0.40;0.40;;;;;;;34.25;15.83;99048.44;5061054;28;20056;-80
2023/06/09 11:48:06;;;;;;;0.40;0.40;;;;;;;33.69;16.10;99050.06;5063896;28;20045;-80
2023/06/09 11:50:42;;;;;;;0.50;0.50;;;;;;;33.72;16.17;99028.88;5073643;28;20132;-79
2023/06/09 11:53:15;;;;;;;0.40;0.40;;;;;;;32.94;16.47;99047.88;5047979;28;20083;-80
2023/06/09 11:55:43;;;;;;;0.40;0.40;;;;;;;32.39;17.08;99039.63;5049221;28;20055;-82
2023/06/09 11:58:12;;;;;;;0.47;0.47;;;;;;;32.40;17.20;99046.78;5053549;28;20056;-80
2023/06/09 12:00:41;;;;;;;0.50;0.50;;;;;;;33.30;16.35;99044.38;5060113;28;20056;-81
2023/06/09 12:03:10;;;;;;;0.40;0.40;;;;;;;33.19;16.34;99047.16;5066854;28;20056;-80
2023/06/09 12:05:38;;;;;;;0.40;0.40;;;;;;;32.29;16.81;99049.53;5056955;28;20048;-79
2023/06/09 12:08:11;;;;;;;0.50;0.50;;;;;;;33.10;16.48;99029.97;5057508;28;20056;-80
2023/06/09 12:10:47;;;;;;;0.40;0.40;;;;;;;33.50;16.03;99025.22;5029900;28;20111;-79